ENBL/FDE METAR and TAF weather

Enter ICAO airport designator
Station Type Date Time Source
ENBL METAR 2021/05/14 21:20 UTC NOAA

ENBL 142120Z 35004KT CAVOK 13/06 Q1003


Station Type Date Time Source
ENBL Decoded METAR 2021/05/14 21:20 UTC NOAA

Forde / Bringeland, Norway (ENBL) 61-27N 005-52E
May 14, 2021 - 05:20 PM EDT / 2021.05.14 2120 UTC
Wind: from the N (350 degrees) at 5 MPH (4 KT):0
Visibility: greater than 7 mile(s):0
Temperature: 55 F (13 C)
Dew Point: 42 F (6 C)
Relative Humidity: 62%
Pressure (altimeter): 29.62 in. Hg (1003 hPa)
ob: ENBL 142120Z 35004KT CAVOK 13/06 Q1003
cycle: 21

Station Type Date Time Source
ENBL TAF UTC NOAA

Error!

Example: see airport list